This is the latest recevied weather packets stored in our database for station/object HP1MRA-15. If no packets are shown the sender has not sent any weather packets the latest 10 day(s).
| Time | Temp. | Humidity | Pressure | Rain* | Wind** | Luminosity | Snow |
|---|---|---|---|---|---|---|---|
| 1777566778 | 36.11° C | 50% | 1000.2 hPa | 0 mm | - | - | - |
| 1777566478 | 36.11° C | 51% | 1000.2 hPa | 0 mm | - | - | - |
| 1777566178 | 35.56° C | 51% | 1000.2 hPa | 0 mm | - | - | - |
| 1777565878 | 35.56° C | 52% | 1000.3 hPa | 0 mm | - | - | - |
| 1777565578 | 35.56° C | 51% | 1000.3 hPa | 0 mm | - | - | - |
| 1777565276 | 36.11° C | 50% | 1000.2 hPa | 0 mm | - | - | - |
| 1777564976 | 37.22° C | 48% | 1000 hPa | 0 mm | - | - | - |
| 1777564676 | 37.22° C | 49% | 1000.1 hPa | 0 mm | - | - | - |
| 1777564375 | 37.78° C | 47% | 1000 hPa | 0 mm | - | - | - |
| 1777564073 | 37.78° C | 48% | 1000 hPa | 0 mm | - | - | - |
| 1777563475 | 36.67° C | 49% | 1000.3 hPa | 0 mm | - | - | - |
| 1777563172 | 36.67° C | 49% | 1000.3 hPa | 0 mm | - | - | - |
| 1777562873 | 36.67° C | 49% | 1000.3 hPa | 0 mm | - | - | - |
| 1777562572 | - | - | 1000.3 hPa | 0 mm | - | - | - |
| 1777562271 | 37.22° C | 48% | 1000.2 hPa | 0 mm | - | - | - |
| 1777561970 | 36.67° C | 49% | 1000.2 hPa | 0 mm | - | - | - |
| 1777561488 | 36.11° C | 49% | 1000.4 hPa | 0 mm | - | - | - |
| 1777561188 | - | - | 1000.3 hPa | 0 mm | - | - | - |
| 1777560886 | 36.11° C | 49% | 1000.3 hPa | 0 mm | - | - | - |
| 1777560585 | 36.11° C | 49% | 1000.4 hPa | 0 mm | - | - | - |
| 1777560002 | 36.11° C | 49% | 1000.2 hPa | 0 mm | - | - | - |
| 1777559629 | 36.11° C | 50% | 1000.3 hPa | 0 mm | - | - | - |
| 1777559321 | 35.56° C | 50% | 1000.3 hPa | 0 mm | - | - | - |
| 1777559020 | 35.56° C | 51% | 1000.4 hPa | 0 mm | - | - | - |
| 1777558721 | 35° C | 53% | 1000.4 hPa | 0 mm | - | - | - |
* Rain latest hour (hover to see other rain measurements)
** Current wind speed in m/s (hover to see current wind gust speed)